AEE285 LGAV-OMDB
Flight info
| Callsign | AEE285 |
|---|---|
| Flight time | 4h 42m |
| Altitude | 35000 |
| Route | KEA UL607 PAXIS Y707 OBRAN L321 REXUM M872 MEDRO/N0451F370 M872 BDB Y214 RAPMA DCT KUVSO DCT KATIT DCT PEKEM M628 RIGIL G783 ELUDA G783 ASPED Q308 KIPOK Q568 IMPED |
| Aircraft | A320/M-SDE3FGHIRWY/LB1 |
Departure
| Time | 2026-04-25 13:15 |
|---|---|
| Airport | Athens Eleftherios Venizelos International Airport (LGAV) |
Arrival
| Time | 2026-04-25 17:57 |
|---|---|
| Airport | Dubai International Airport (OMDB) |
| Time | Latitude | Longitude | Altitude | Speed | Heading |
|---|---|---|---|---|---|
| 2026-04-25 12:39 | 37.94230 | 23.95179 | 301 ft | 0 kts | 218° |
| 2026-04-25 13:01 | 37.94235 | 23.95184 | 303 ft | 2 kts | 218° |
| 2026-04-25 13:01 | 37.94251 | 23.95200 | 304 ft | 3 kts | 220° |
| 2026-04-25 13:01 | 37.94267 | 23.95217 | 301 ft | 3 kts | 223° |
| 2026-04-25 13:02 | 37.94281 | 23.95235 | 301 ft | 3 kts | 229° |
| 2026-04-25 13:02 | 37.94293 | 23.95255 | 304 ft | 3 kts | 246° |
| 2026-04-25 13:02 | 37.94298 | 23.95275 | 301 ft | 2 kts | 295° |
| 2026-04-25 13:02 | 37.94296 | 23.95280 | 302 ft | 0 kts | 307° |
| 2026-04-25 13:06 | 37.94315 | 23.95248 | 301 ft | 8 kts | 307° |
| 2026-04-25 13:06 | 37.94335 | 23.95215 | 301 ft | 6 kts | 307° |
| 2026-04-25 13:06 | 37.94375 | 23.95148 | 301 ft | 13 kts | 306° |
| 2026-04-25 13:06 | 37.94437 | 23.95043 | 301 ft | 16 kts | 307° |
| 2026-04-25 13:07 | 37.94505 | 23.94931 | 303 ft | 16 kts | 306° |
| 2026-04-25 13:07 | 37.94570 | 23.94817 | 303 ft | 16 kts | 306° |
| 2026-04-25 13:07 | 37.94635 | 23.94707 | 302 ft | 16 kts | 307° |
| 2026-04-25 13:07 | 37.94679 | 23.94595 | 304 ft | 13 kts | 259° |
| 2026-04-25 13:08 | 37.94619 | 23.94515 | 304 ft | 13 kts | 216° |
| 2026-04-25 13:08 | 37.94547 | 23.94447 | 302 ft | 13 kts | 217° |
| 2026-04-25 13:08 | 37.94477 | 23.94380 | 305 ft | 12 kts | 217° |
| 2026-04-25 13:08 | 37.94408 | 23.94314 | 302 ft | 12 kts | 216° |
| 2026-04-25 13:09 | 37.94337 | 23.94248 | 303 ft | 13 kts | 217° |
| 2026-04-25 13:09 | 37.94263 | 23.94177 | 301 ft | 14 kts | 217° |
| 2026-04-25 13:09 | 37.94182 | 23.94100 | 302 ft | 17 kts | 217° |
| 2026-04-25 13:09 | 37.94079 | 23.94003 | 301 ft | 19 kts | 217° |
| 2026-04-25 13:10 | 37.93968 | 23.93901 | 301 ft | 20 kts | 216° |
| 2026-04-25 13:10 | 37.93852 | 23.93791 | 300 ft | 21 kts | 218° |
| 2026-04-25 13:10 | 37.93732 | 23.93673 | 300 ft | 22 kts | 217° |
| 2026-04-25 13:10 | 37.93605 | 23.93553 | 300 ft | 23 kts | 217° |
| 2026-04-25 13:11 | 37.93473 | 23.93432 | 301 ft | 24 kts | 215° |
| 2026-04-25 13:11 | 37.93340 | 23.93302 | 301 ft | 25 kts | 217° |
| 2026-04-25 13:11 | 37.93209 | 23.93178 | 300 ft | 23 kts | 217° |
| 2026-04-25 13:11 | 37.93076 | 23.93052 | 301 ft | 24 kts | 218° |
| 2026-04-25 13:12 | 37.92946 | 23.92927 | 300 ft | 23 kts | 216° |
| 2026-04-25 13:12 | 37.92818 | 23.92805 | 301 ft | 22 kts | 217° |
| 2026-04-25 13:12 | 37.92692 | 23.92687 | 302 ft | 23 kts | 216° |
| 2026-04-25 13:12 | 37.92608 | 23.92608 | 302 ft | 23 kts | 217° |
| 2026-04-25 13:13 | 37.92435 | 23.92441 | 301 ft | 24 kts | 216° |
| 2026-04-25 13:13 | 37.92303 | 23.92316 | 302 ft | 24 kts | 217° |
| 2026-04-25 13:13 | 37.92183 | 23.92202 | 302 ft | 21 kts | 217° |
| 2026-04-25 13:13 | 37.92112 | 23.92119 | 302 ft | 12 kts | 252° |
| 2026-04-25 13:14 | 37.92135 | 23.92028 | 302 ft | 12 kts | 309° |
| 2026-04-25 13:14 | 37.92179 | 23.91959 | 304 ft | 8 kts | 313° |
| 2026-04-25 13:14 | 37.92229 | 23.91971 | 303 ft | 9 kts | 36° |
| 2026-04-25 13:14 | 37.92244 | 23.91985 | 306 ft | 0 kts | 37° |
| 2026-04-25 13:15 | 37.92325 | 23.92061 | 304 ft | 45 kts | 37° |
| 2026-04-25 13:15 | 37.92754 | 23.92467 | 303 ft | 106 kts | 37° |
| 2026-04-25 13:15 | 37.93481 | 23.93156 | 320 ft | 149 kts | 37° |
| 2026-04-25 13:15 | 37.94294 | 23.93926 | 978 ft | 143 kts | 39° |
| 2026-04-25 13:16 | 37.95096 | 23.94675 | 1610 ft | 143 kts | 35° |
| 2026-04-25 13:16 | 37.95920 | 23.95424 | 2110 ft | 151 kts | 34° |
| 2026-04-25 13:16 | 37.96829 | 23.96246 | 2264 ft | 171 kts | 34° |
| 2026-04-25 13:16 | 37.97861 | 23.97182 | 2428 ft | 194 kts | 36° |
| 2026-04-25 13:17 | 37.99030 | 23.98248 | 2584 ft | 218 kts | 36° |
| 2026-04-25 13:17 | 38.00292 | 23.99405 | 3157 ft | 227 kts | 36° |
| 2026-04-25 13:17 | 38.01585 | 24.00596 | 3850 ft | 232 kts | 37° |
| 2026-04-25 13:17 | 38.02908 | 24.01817 | 4519 ft | 238 kts | 38° |
| 2026-04-25 13:18 | 38.04205 | 24.03197 | 4985 ft | 252 kts | 54° |
| 2026-04-25 13:18 | 38.04929 | 24.05224 | 5578 ft | 258 kts | 82° |
| 2026-04-25 13:18 | 38.04781 | 24.07457 | 6286 ft | 262 kts | 110° |
| 2026-04-25 13:18 | 38.03731 | 24.09378 | 7003 ft | 269 kts | 140° |
| 2026-04-25 13:19 | 38.02094 | 24.10579 | 7693 ft | 274 kts | 151° |
| 2026-04-25 13:19 | 38.00404 | 24.11650 | 8384 ft | 276 kts | 151° |
| 2026-04-25 13:19 | 37.98672 | 24.12742 | 9080 ft | 280 kts | 151° |
| 2026-04-25 13:19 | 37.97491 | 24.13488 | 9549 ft | 281 kts | 151° |
| 2026-04-25 13:20 | 37.95145 | 24.14974 | 10256 ft | 293 kts | 151° |
| 2026-04-25 13:20 | 37.93255 | 24.16180 | 10384 ft | 315 kts | 151° |
| 2026-04-25 13:20 | 37.91235 | 24.17469 | 10511 ft | 335 kts | 151° |
| 2026-04-25 13:20 | 37.89120 | 24.18811 | 10893 ft | 345 kts | 151° |
| 2026-04-25 13:21 | 37.86959 | 24.20178 | 11429 ft | 349 kts | 151° |
| 2026-04-25 13:21 | 37.84776 | 24.21558 | 12021 ft | 352 kts | 151° |
| 2026-04-25 13:21 | 37.82573 | 24.22950 | 12616 ft | 355 kts | 151° |
| 2026-04-25 13:21 | 37.80348 | 24.24359 | 13199 ft | 358 kts | 151° |
| 2026-04-25 13:22 | 37.78109 | 24.25776 | 13793 ft | 361 kts | 151° |
| 2026-04-25 13:22 | 37.75852 | 24.27203 | 14314 ft | 364 kts | 151° |
| 2026-04-25 13:22 | 37.73578 | 24.28637 | 14831 ft | 367 kts | 151° |
| 2026-04-25 13:23 | 37.68980 | 24.31537 | 15832 ft | 372 kts | 151° |
| 2026-04-25 13:23 | 37.66657 | 24.33003 | 16337 ft | 375 kts | 151° |
| 2026-04-25 13:23 | 37.64316 | 24.34480 | 16846 ft | 378 kts | 151° |
| 2026-04-25 13:23 | 37.61958 | 24.35968 | 17360 ft | 381 kts | 151° |
| 2026-04-25 13:24 | 37.59578 | 24.37466 | 17894 ft | 384 kts | 151° |
| 2026-04-25 13:24 | 37.57230 | 24.38945 | 18401 ft | 387 kts | 151° |
| 2026-04-25 13:24 | 37.54813 | 24.40467 | 18874 ft | 390 kts | 151° |
| 2026-04-25 13:24 | 37.52374 | 24.41999 | 19375 ft | 392 kts | 151° |
| 2026-04-25 13:25 | 37.49926 | 24.43537 | 19872 ft | 394 kts | 151° |
| 2026-04-25 13:25 | 37.47467 | 24.45078 | 20374 ft | 397 kts | 151° |
| 2026-04-25 13:25 | 37.44988 | 24.46631 | 20832 ft | 399 kts | 151° |
| 2026-04-25 13:25 | 37.42495 | 24.48192 | 21292 ft | 401 kts | 151° |
| 2026-04-25 13:26 | 37.40015 | 24.49743 | 21728 ft | 404 kts | 151° |
| 2026-04-25 13:26 | 37.37494 | 24.51318 | 22145 ft | 406 kts | 150° |
| 2026-04-25 13:26 | 37.34957 | 24.52901 | 22564 ft | 408 kts | 150° |
| 2026-04-25 13:26 | 37.32406 | 24.54490 | 22977 ft | 410 kts | 150° |
| 2026-04-25 13:27 | 37.29842 | 24.56086 | 23380 ft | 412 kts | 150° |
| 2026-04-25 13:27 | 37.27265 | 24.57692 | 23740 ft | 415 kts | 150° |
| 2026-04-25 13:27 | 37.24675 | 24.59308 | 24067 ft | 417 kts | 150° |
| 2026-04-25 13:27 | 37.22073 | 24.60931 | 24380 ft | 419 kts | 150° |
| 2026-04-25 13:28 | 37.19456 | 24.62559 | 24679 ft | 421 kts | 151° |
| 2026-04-25 13:28 | 37.18565 | 24.63112 | 24784 ft | 422 kts | 151° |
| 2026-04-25 13:28 | 37.14180 | 24.65835 | 25278 ft | 425 kts | 151° |
| 2026-04-25 13:28 | 37.11522 | 24.67482 | 25574 ft | 427 kts | 151° |
| 2026-04-25 13:29 | 37.08851 | 24.69137 | 25859 ft | 429 kts | 151° |
| 2026-04-25 13:29 | 37.06169 | 24.70800 | 26158 ft | 431 kts | 151° |
| 2026-04-25 13:29 | 37.03473 | 24.72469 | 26445 ft | 433 kts | 151° |
| 2026-04-25 13:30 | 36.98046 | 24.75830 | 27021 ft | 437 kts | 151° |
| 2026-04-25 13:30 | 36.95322 | 24.77515 | 27423 ft | 436 kts | 151° |
| 2026-04-25 13:30 | 36.92608 | 24.79197 | 27852 ft | 434 kts | 150° |
| 2026-04-25 13:31 | 36.87466 | 24.83092 | 28675 ft | 431 kts | 146° |
| 2026-04-25 13:31 | 36.84913 | 24.85067 | 29103 ft | 430 kts | 146° |
| 2026-04-25 13:31 | 36.82377 | 24.87027 | 29521 ft | 429 kts | 146° |
| 2026-04-25 13:31 | 36.79835 | 24.88989 | 29943 ft | 428 kts | 146° |
| 2026-04-25 13:32 | 36.77307 | 24.90941 | 30317 ft | 427 kts | 146° |
| 2026-04-25 13:32 | 36.74780 | 24.92890 | 30649 ft | 427 kts | 146° |
| 2026-04-25 13:32 | 36.72288 | 24.94807 | 30977 ft | 426 kts | 146° |
| 2026-04-25 13:32 | 36.69764 | 24.96750 | 31306 ft | 426 kts | 146° |
| 2026-04-25 13:33 | 36.67241 | 24.98692 | 31630 ft | 426 kts | 146° |
| 2026-04-25 13:33 | 36.64717 | 25.00628 | 31962 ft | 426 kts | 146° |
| 2026-04-25 13:33 | 36.62193 | 25.02559 | 32292 ft | 426 kts | 146° |
| 2026-04-25 13:33 | 36.59673 | 25.04483 | 32615 ft | 426 kts | 146° |
| 2026-04-25 13:34 | 36.57143 | 25.06413 | 32943 ft | 426 kts | 146° |
| 2026-04-25 13:34 | 36.54618 | 25.08341 | 33275 ft | 425 kts | 146° |
| 2026-04-25 13:34 | 36.52097 | 25.10266 | 33593 ft | 425 kts | 146° |
| 2026-04-25 13:34 | 36.49578 | 25.12193 | 33882 ft | 425 kts | 147° |
| 2026-04-25 13:35 | 36.47061 | 25.14119 | 34131 ft | 425 kts | 147° |
| 2026-04-25 13:35 | 36.44548 | 25.16040 | 34362 ft | 425 kts | 147° |
| 2026-04-25 13:35 | 36.42023 | 25.17967 | 34583 ft | 425 kts | 147° |
| 2026-04-25 13:35 | 36.39501 | 25.19887 | 34794 ft | 425 kts | 147° |
| 2026-04-25 13:36 | 36.36975 | 25.21810 | 34928 ft | 427 kts | 147° |
| 2026-04-25 13:36 | 36.31858 | 25.25704 | 34960 ft | 437 kts | 148° |
| 2026-04-25 13:37 | 36.26612 | 25.29678 | 34968 ft | 444 kts | 148° |
| 2026-04-25 13:37 | 36.21329 | 25.33677 | 34948 ft | 445 kts | 148° |
| 2026-04-25 13:38 | 36.16045 | 25.37673 | 34939 ft | 445 kts | 148° |
| 2026-04-25 13:38 | 36.10799 | 25.41636 | 34927 ft | 445 kts | 148° |
| 2026-04-25 13:39 | 36.05518 | 25.45620 | 34917 ft | 445 kts | 148° |
| 2026-04-25 13:39 | 36.00239 | 25.49592 | 34923 ft | 445 kts | 148° |
| 2026-04-25 13:40 | 35.95808 | 25.52925 | 34926 ft | 444 kts | 148° |
| 2026-04-25 13:40 | 35.89673 | 25.57535 | 34932 ft | 444 kts | 149° |
| 2026-04-25 13:41 | 35.84390 | 25.61497 | 34924 ft | 444 kts | 149° |
| 2026-04-25 13:41 | 35.79106 | 25.65443 | 34921 ft | 444 kts | 149° |
| 2026-04-25 13:42 | 35.73831 | 25.69386 | 34926 ft | 443 kts | 149° |
| 2026-04-25 13:42 | 35.68563 | 25.73321 | 34928 ft | 443 kts | 150° |
| 2026-04-25 13:43 | 35.63304 | 25.77238 | 34917 ft | 442 kts | 150° |
| 2026-04-25 13:43 | 35.58040 | 25.81147 | 34923 ft | 441 kts | 150° |
| 2026-04-25 13:44 | 35.52800 | 25.85033 | 34922 ft | 440 kts | 150° |
| 2026-04-25 13:44 | 35.47570 | 25.88914 | 34915 ft | 439 kts | 151° |
| 2026-04-25 13:45 | 35.42350 | 25.92775 | 34901 ft | 438 kts | 150° |
| 2026-04-25 13:45 | 35.37138 | 25.96624 | 34901 ft | 437 kts | 151° |
| 2026-04-25 13:46 | 35.31929 | 26.00467 | 34885 ft | 437 kts | 150° |
| 2026-04-25 13:46 | 35.26722 | 26.04309 | 34881 ft | 437 kts | 150° |
| 2026-04-25 13:47 | 35.21548 | 26.08122 | 34878 ft | 437 kts | 150° |
| 2026-04-25 13:47 | 35.16334 | 26.11954 | 34873 ft | 437 kts | 150° |
| 2026-04-25 13:48 | 35.11114 | 26.15779 | 34875 ft | 438 kts | 151° |
| 2026-04-25 13:48 | 35.05986 | 26.19793 | 34861 ft | 440 kts | 142° |
| 2026-04-25 13:49 | 35.01328 | 26.24652 | 34854 ft | 441 kts | 142° |
| 2026-04-25 13:49 | 34.96664 | 26.29513 | 34848 ft | 441 kts | 142° |
| 2026-04-25 13:50 | 34.91989 | 26.34364 | 34850 ft | 442 kts | 142° |
| 2026-04-25 13:50 | 34.87304 | 26.39225 | 34849 ft | 442 kts | 142° |
| 2026-04-25 13:51 | 34.82612 | 26.44082 | 34844 ft | 443 kts | 142° |
| 2026-04-25 13:51 | 34.77920 | 26.48934 | 34845 ft | 443 kts | 142° |
| 2026-04-25 13:52 | 34.73220 | 26.53787 | 34836 ft | 443 kts | 142° |
| 2026-04-25 13:52 | 34.68515 | 26.58643 | 34837 ft | 444 kts | 142° |
| 2026-04-25 13:53 | 34.64596 | 26.62679 | 34831 ft | 444 kts | 142° |
| 2026-04-25 13:53 | 34.59877 | 26.67536 | 34828 ft | 445 kts | 143° |
| 2026-04-25 13:54 | 34.55145 | 26.72386 | 34826 ft | 446 kts | 143° |
| 2026-04-25 13:54 | 34.50407 | 26.77245 | 34828 ft | 446 kts | 143° |
| 2026-04-25 13:55 | 34.45658 | 26.82113 | 34823 ft | 447 kts | 143° |
| 2026-04-25 13:55 | 34.40902 | 26.86966 | 34821 ft | 448 kts | 143° |
| 2026-04-25 13:56 | 34.36137 | 26.91831 | 34820 ft | 448 kts | 143° |
| 2026-04-25 13:56 | 34.31395 | 26.96671 | 34823 ft | 449 kts | 144° |
| 2026-04-25 13:57 | 34.26609 | 27.01535 | 34825 ft | 450 kts | 144° |
| 2026-04-25 13:57 | 34.21804 | 27.06411 | 34826 ft | 451 kts | 144° |
| 2026-04-25 13:58 | 34.17000 | 27.11289 | 34826 ft | 451 kts | 144° |
| 2026-04-25 13:58 | 34.12182 | 27.16158 | 34828 ft | 452 kts | 144° |
| 2026-04-25 13:59 | 34.07364 | 27.21030 | 34835 ft | 453 kts | 144° |
| 2026-04-25 13:59 | 34.02529 | 27.25911 | 34837 ft | 453 kts | 144° |
| 2026-04-25 14:00 | 33.97686 | 27.30792 | 34841 ft | 454 kts | 145° |
| 2026-04-25 14:00 | 33.92426 | 27.34797 | 34843 ft | 443 kts | 161° |
| 2026-04-25 14:01 | 33.86775 | 27.37779 | 34846 ft | 444 kts | 161° |
| 2026-04-25 14:01 | 33.81159 | 27.40758 | 34851 ft | 444 kts | 161° |
| 2026-04-25 14:02 | 33.75499 | 27.43756 | 34857 ft | 445 kts | 161° |
| 2026-04-25 14:02 | 33.69831 | 27.46752 | 34862 ft | 445 kts | 161° |
| 2026-04-25 14:03 | 33.64163 | 27.49756 | 34861 ft | 445 kts | 162° |
| 2026-04-25 14:03 | 33.58492 | 27.52745 | 34861 ft | 445 kts | 162° |
| 2026-04-25 14:04 | 33.52811 | 27.55734 | 34875 ft | 446 kts | 162° |
| 2026-04-25 14:04 | 33.47138 | 27.58719 | 34873 ft | 446 kts | 162° |
| 2026-04-25 14:05 | 33.41452 | 27.61703 | 34871 ft | 446 kts | 162° |
| 2026-04-25 14:05 | 33.35760 | 27.64681 | 34872 ft | 447 kts | 162° |
| 2026-04-25 14:06 | 33.30064 | 27.67657 | 34870 ft | 447 kts | 162° |
| 2026-04-25 14:06 | 33.24401 | 27.70614 | 34873 ft | 447 kts | 162° |
| 2026-04-25 14:07 | 33.18696 | 27.73601 | 34874 ft | 448 kts | 162° |
| 2026-04-25 14:07 | 33.12979 | 27.76584 | 34877 ft | 448 kts | 162° |
| 2026-04-25 14:08 | 33.07268 | 27.79558 | 34879 ft | 448 kts | 162° |
| 2026-04-25 14:08 | 33.01551 | 27.82524 | 34877 ft | 448 kts | 162° |
| 2026-04-25 14:09 | 32.95836 | 27.85489 | 34896 ft | 449 kts | 162° |
| 2026-04-25 14:09 | 32.90110 | 27.88450 | 34886 ft | 449 kts | 163° |
| 2026-04-25 14:10 | 32.84380 | 27.91409 | 34886 ft | 449 kts | 163° |
| 2026-04-25 14:10 | 32.78638 | 27.94382 | 34886 ft | 450 kts | 163° |
| 2026-04-25 14:11 | 32.72931 | 27.97337 | 34883 ft | 450 kts | 163° |
| 2026-04-25 14:11 | 32.67186 | 28.00300 | 34885 ft | 450 kts | 163° |
| 2026-04-25 14:12 | 32.61435 | 28.03258 | 34886 ft | 451 kts | 163° |
| 2026-04-25 14:12 | 32.55681 | 28.06208 | 34890 ft | 451 kts | 163° |
| 2026-04-25 14:13 | 32.49916 | 28.09164 | 34890 ft | 452 kts | 163° |
| 2026-04-25 14:13 | 32.44142 | 28.12115 | 34896 ft | 452 kts | 163° |
| 2026-04-25 14:14 | 32.38362 | 28.15074 | 34898 ft | 453 kts | 163° |
| 2026-04-25 14:14 | 32.32578 | 28.18041 | 34902 ft | 453 kts | 163° |
| 2026-04-25 14:15 | 32.26786 | 28.21006 | 34898 ft | 453 kts | 164° |
| 2026-04-25 14:15 | 32.20996 | 28.23946 | 34898 ft | 454 kts | 164° |
| 2026-04-25 14:16 | 32.15197 | 28.26894 | 34894 ft | 454 kts | 164° |
| 2026-04-25 14:16 | 32.09393 | 28.29846 | 34904 ft | 454 kts | 164° |
| 2026-04-25 14:17 | 32.03620 | 28.32771 | 34905 ft | 455 kts | 164° |
| 2026-04-25 14:17 | 31.97803 | 28.35719 | 34896 ft | 455 kts | 164° |
| 2026-04-25 14:18 | 31.91973 | 28.38671 | 34903 ft | 456 kts | 164° |
| 2026-04-25 14:18 | 31.86149 | 28.41619 | 34900 ft | 456 kts | 165° |
| 2026-04-25 14:19 | 31.80302 | 28.44565 | 34896 ft | 457 kts | 165° |
| 2026-04-25 14:19 | 31.74451 | 28.47500 | 34893 ft | 457 kts | 165° |
| 2026-04-25 14:20 | 31.68590 | 28.50434 | 34890 ft | 458 kts | 165° |
| 2026-04-25 14:20 | 31.62714 | 28.53373 | 34889 ft | 459 kts | 165° |
| 2026-04-25 14:21 | 31.56836 | 28.56307 | 34889 ft | 460 kts | 166° |
| 2026-04-25 14:21 | 31.50947 | 28.59238 | 34888 ft | 460 kts | 166° |
| 2026-04-25 14:22 | 31.45039 | 28.62175 | 34884 ft | 461 kts | 166° |
| 2026-04-25 14:22 | 31.39165 | 28.65095 | 34884 ft | 462 kts | 166° |
| 2026-04-25 14:23 | 31.33242 | 28.68032 | 34885 ft | 463 kts | 166° |
| 2026-04-25 14:23 | 31.27313 | 28.70977 | 34891 ft | 463 kts | 166° |
| 2026-04-25 14:24 | 31.21377 | 28.73912 | 34895 ft | 463 kts | 166° |
| 2026-04-25 14:24 | 31.15434 | 28.76839 | 34896 ft | 464 kts | 166° |
| 2026-04-25 14:25 | 31.09489 | 28.79769 | 34895 ft | 464 kts | 166° |
| 2026-04-25 14:25 | 31.03543 | 28.82704 | 34897 ft | 464 kts | 166° |
| 2026-04-25 14:26 | 30.97594 | 28.85628 | 34902 ft | 464 kts | 166° |
| 2026-04-25 14:26 | 30.91643 | 28.88546 | 34903 ft | 464 kts | 166° |
| 2026-04-25 14:27 | 30.85693 | 28.91474 | 34903 ft | 464 kts | 166° |
| 2026-04-25 14:27 | 30.79743 | 28.94398 | 34899 ft | 464 kts | 166° |
| 2026-04-25 14:28 | 30.73788 | 28.97303 | 34898 ft | 464 kts | 166° |
| 2026-04-25 14:28 | 30.67829 | 29.00205 | 34883 ft | 465 kts | 166° |
| 2026-04-25 14:29 | 30.61907 | 29.03097 | 34872 ft | 465 kts | 166° |
| 2026-04-25 14:29 | 30.55931 | 29.06013 | 34866 ft | 466 kts | 166° |
| 2026-04-25 14:30 | 30.50083 | 29.09398 | 34847 ft | 481 kts | 153° |
| 2026-04-25 14:30 | 30.45082 | 29.14756 | 34840 ft | 495 kts | 141° |
| 2026-04-25 14:30 | 30.42699 | 29.17654 | 34838 ft | 496 kts | 141° |
| 2026-04-25 14:31 | 30.37924 | 29.23407 | 34833 ft | 496 kts | 141° |
| 2026-04-25 14:31 | 30.33118 | 29.29147 | 34829 ft | 497 kts | 142° |
| 2026-04-25 14:32 | 30.28305 | 29.34886 | 34829 ft | 497 kts | 141° |
| 2026-04-25 14:32 | 30.23492 | 29.40642 | 34829 ft | 498 kts | 141° |
| 2026-04-25 14:33 | 30.18674 | 29.46393 | 34827 ft | 498 kts | 142° |
| 2026-04-25 14:33 | 30.13847 | 29.52136 | 34820 ft | 498 kts | 142° |
| 2026-04-25 14:34 | 30.09017 | 29.57881 | 34832 ft | 499 kts | 142° |
| 2026-04-25 14:34 | 30.04182 | 29.63622 | 34842 ft | 499 kts | 142° |
| 2026-04-25 14:35 | 29.99339 | 29.69354 | 34843 ft | 499 kts | 142° |
| 2026-04-25 14:35 | 29.94495 | 29.75084 | 34850 ft | 499 kts | 142° |
| 2026-04-25 14:36 | 29.89644 | 29.80815 | 34850 ft | 499 kts | 142° |
| 2026-04-25 14:36 | 29.84829 | 29.86494 | 34857 ft | 499 kts | 142° |
| 2026-04-25 14:37 | 29.79979 | 29.92214 | 34859 ft | 499 kts | 142° |
| 2026-04-25 14:37 | 29.75124 | 29.97930 | 34863 ft | 499 kts | 142° |
| 2026-04-25 14:38 | 29.70267 | 30.03643 | 34864 ft | 499 kts | 142° |
| 2026-04-25 14:38 | 29.65407 | 30.09350 | 34864 ft | 499 kts | 142° |
| 2026-04-25 14:39 | 29.60546 | 30.15037 | 34864 ft | 499 kts | 142° |
| 2026-04-25 14:39 | 29.55668 | 30.20732 | 34861 ft | 499 kts | 142° |
| 2026-04-25 14:40 | 29.50798 | 30.26417 | 34857 ft | 500 kts | 142° |
| 2026-04-25 14:40 | 29.45923 | 30.32117 | 34859 ft | 500 kts | 142° |
| 2026-04-25 14:41 | 29.41039 | 30.37808 | 34862 ft | 501 kts | 142° |
| 2026-04-25 14:41 | 29.36158 | 30.43520 | 34869 ft | 502 kts | 142° |
| 2026-04-25 14:42 | 29.32951 | 30.47355 | 34867 ft | 503 kts | 141° |
| 2026-04-25 14:42 | 29.26533 | 30.55079 | 34868 ft | 503 kts | 142° |
| 2026-04-25 14:43 | 29.22473 | 30.59926 | 34875 ft | 503 kts | 142° |
| 2026-04-25 14:43 | 29.17613 | 30.65694 | 34874 ft | 503 kts | 142° |
| 2026-04-25 14:44 | 29.12779 | 30.71422 | 34877 ft | 504 kts | 142° |
| 2026-04-25 14:44 | 29.07912 | 30.77195 | 34881 ft | 504 kts | 142° |
| 2026-04-25 14:45 | 29.03047 | 30.82961 | 34879 ft | 504 kts | 142° |
| 2026-04-25 14:45 | 28.98168 | 30.88723 | 34878 ft | 504 kts | 142° |
| 2026-04-25 14:46 | 28.93286 | 30.94487 | 34881 ft | 505 kts | 142° |
| 2026-04-25 14:46 | 28.88395 | 31.00251 | 34880 ft | 506 kts | 142° |
| 2026-04-25 14:47 | 28.84331 | 31.05042 | 34894 ft | 506 kts | 142° |
| 2026-04-25 14:47 | 28.78597 | 31.11789 | 34889 ft | 507 kts | 143° |
| 2026-04-25 14:48 | 28.73680 | 31.17552 | 34898 ft | 507 kts | 143° |
| 2026-04-25 14:48 | 28.68795 | 31.23291 | 34894 ft | 509 kts | 142° |
| 2026-04-25 14:49 | 28.63962 | 31.29293 | 34892 ft | 512 kts | 140° |
| 2026-04-25 14:49 | 28.59236 | 31.35382 | 34901 ft | 514 kts | 140° |
| 2026-04-25 14:50 | 28.54484 | 31.41456 | 34907 ft | 514 kts | 141° |
| 2026-04-25 14:50 | 28.49685 | 31.47468 | 34909 ft | 514 kts | 141° |
| 2026-04-25 14:51 | 28.44863 | 31.53478 | 34915 ft | 515 kts | 141° |
| 2026-04-25 14:51 | 28.40066 | 31.59469 | 34923 ft | 516 kts | 141° |
| 2026-04-25 14:52 | 28.35243 | 31.65494 | 34922 ft | 516 kts | 141° |
| 2026-04-25 14:52 | 28.31194 | 31.70557 | 34929 ft | 517 kts | 141° |
| 2026-04-25 14:53 | 28.25573 | 31.77574 | 34927 ft | 517 kts | 142° |
| 2026-04-25 14:53 | 28.20713 | 31.83607 | 34932 ft | 518 kts | 142° |
| 2026-04-25 14:54 | 28.15852 | 31.89638 | 34929 ft | 518 kts | 142° |
| 2026-04-25 14:54 | 28.10989 | 31.95667 | 34932 ft | 519 kts | 142° |
| 2026-04-25 14:55 | 28.06106 | 32.01707 | 34935 ft | 520 kts | 142° |
| 2026-04-25 14:55 | 28.01768 | 32.08386 | 34928 ft | 538 kts | 126° |
| 2026-04-25 14:56 | 27.98209 | 32.15849 | 34920 ft | 539 kts | 126° |
| 2026-04-25 14:56 | 27.94618 | 32.23280 | 34912 ft | 539 kts | 126° |
| 2026-04-25 14:57 | 27.91008 | 32.30722 | 34894 ft | 539 kts | 126° |
| 2026-04-25 14:57 | 27.87403 | 32.38162 | 34877 ft | 540 kts | 126° |
| 2026-04-25 14:58 | 27.83801 | 32.45612 | 34870 ft | 540 kts | 126° |
| 2026-04-25 14:58 | 27.80219 | 32.53014 | 34868 ft | 541 kts | 126° |
| 2026-04-25 14:59 | 27.76606 | 32.60461 | 34856 ft | 541 kts | 126° |
| 2026-04-25 14:59 | 27.72981 | 32.67903 | 34854 ft | 541 kts | 127° |
| 2026-04-25 15:00 | 27.69344 | 32.75342 | 34849 ft | 541 kts | 127° |
| 2026-04-25 15:00 | 27.65708 | 32.82787 | 34850 ft | 542 kts | 127° |
| 2026-04-25 15:01 | 27.62063 | 32.90231 | 34839 ft | 542 kts | 127° |
| 2026-04-25 15:01 | 27.58412 | 32.97675 | 34841 ft | 543 kts | 127° |
| 2026-04-25 15:02 | 27.54753 | 33.05119 | 34843 ft | 543 kts | 127° |
| 2026-04-25 15:02 | 27.51087 | 33.12565 | 34850 ft | 544 kts | 127° |
| 2026-04-25 15:03 | 27.47426 | 33.20000 | 34861 ft | 543 kts | 127° |
| 2026-04-25 15:03 | 27.43757 | 33.27443 | 34865 ft | 544 kts | 127° |
| 2026-04-25 15:04 | 27.40075 | 33.34879 | 34868 ft | 544 kts | 127° |
| 2026-04-25 15:04 | 27.36388 | 33.42313 | 34865 ft | 544 kts | 127° |
| 2026-04-25 15:05 | 27.32692 | 33.49744 | 34859 ft | 544 kts | 127° |
| 2026-04-25 15:06 | 27.27137 | 33.60896 | 34855 ft | 545 kts | 127° |
| 2026-04-25 15:06 | 27.23446 | 33.68294 | 34854 ft | 546 kts | 128° |
| 2026-04-25 15:07 | 27.19731 | 33.75730 | 34851 ft | 546 kts | 127° |
| 2026-04-25 15:07 | 27.16401 | 33.83465 | 34850 ft | 556 kts | 118° |
| 2026-04-25 15:08 | 27.13540 | 33.91537 | 34847 ft | 557 kts | 118° |
| 2026-04-25 15:08 | 27.10679 | 33.99605 | 34843 ft | 557 kts | 118° |
| 2026-04-25 15:09 | 27.07806 | 34.07683 | 34843 ft | 557 kts | 118° |
| 2026-04-25 15:09 | 27.03471 | 34.19793 | 34845 ft | 558 kts | 118° |
| 2026-04-25 15:10 | 27.00578 | 34.27867 | 34846 ft | 558 kts | 118° |
| 2026-04-25 15:11 | 26.96220 | 34.39970 | 34844 ft | 558 kts | 118° |
| 2026-04-25 15:11 | 26.93314 | 34.48039 | 34844 ft | 558 kts | 118° |
| 2026-04-25 15:12 | 26.88950 | 34.60139 | 34856 ft | 558 kts | 118° |
| 2026-04-25 15:12 | 26.87020 | 34.65475 | 34859 ft | 558 kts | 118° |
| 2026-04-25 15:13 | 26.81655 | 34.80221 | 34865 ft | 558 kts | 119° |
| 2026-04-25 15:14 | 26.78722 | 34.88268 | 34865 ft | 558 kts | 118° |
| 2026-04-25 15:14 | 26.75788 | 34.96312 | 34867 ft | 558 kts | 119° |
| 2026-04-25 15:15 | 26.73344 | 35.02996 | 34868 ft | 558 kts | 119° |
| 2026-04-25 15:15 | 26.69902 | 35.12394 | 34869 ft | 558 kts | 119° |
| 2026-04-25 15:16 | 26.66960 | 35.20415 | 34863 ft | 558 kts | 119° |
| 2026-04-25 15:16 | 26.62530 | 35.32450 | 34871 ft | 558 kts | 119° |
| 2026-04-25 15:17 | 26.58096 | 35.44470 | 34867 ft | 558 kts | 119° |
| 2026-04-25 15:18 | 26.55149 | 35.52417 | 34876 ft | 557 kts | 119° |
| 2026-04-25 15:18 | 26.50580 | 35.64341 | 34881 ft | 556 kts | 120° |
| 2026-04-25 15:19 | 26.48529 | 35.69648 | 34876 ft | 556 kts | 120° |
| 2026-04-25 15:19 | 26.44483 | 35.80208 | 34881 ft | 556 kts | 120° |
| 2026-04-25 15:20 | 26.41452 | 35.88135 | 34876 ft | 555 kts | 120° |
| 2026-04-25 15:20 | 26.38405 | 35.96047 | 34878 ft | 555 kts | 120° |
| 2026-04-25 15:21 | 26.35375 | 36.03896 | 34874 ft | 554 kts | 120° |
| 2026-04-25 15:21 | 26.32321 | 36.11787 | 34872 ft | 554 kts | 120° |
| 2026-04-25 15:22 | 26.29263 | 36.19670 | 34873 ft | 554 kts | 120° |
| 2026-04-25 15:22 | 26.26210 | 36.27552 | 34871 ft | 554 kts | 120° |
| 2026-04-25 15:23 | 26.23157 | 36.35427 | 34869 ft | 553 kts | 120° |
| 2026-04-25 15:23 | 26.20097 | 36.43290 | 34865 ft | 553 kts | 120° |
| 2026-04-25 15:24 | 26.16859 | 36.51020 | 34867 ft | 546 kts | 127° |
| 2026-04-25 15:24 | 26.14432 | 36.55931 | 34866 ft | 546 kts | 127° |
| 2026-04-25 15:25 | 26.09544 | 36.65837 | 34866 ft | 546 kts | 126° |
| 2026-04-25 15:25 | 26.05895 | 36.73246 | 34871 ft | 546 kts | 126° |
| 2026-04-25 15:26 | 26.02239 | 36.80644 | 34868 ft | 545 kts | 127° |
| 2026-04-25 15:26 | 25.98603 | 36.87990 | 34868 ft | 545 kts | 127° |
| 2026-04-25 15:27 | 25.94949 | 36.95358 | 34868 ft | 545 kts | 127° |
| 2026-04-25 15:28 | 25.89452 | 37.06402 | 34863 ft | 544 kts | 127° |
| 2026-04-25 15:28 | 25.85791 | 37.13761 | 34863 ft | 544 kts | 127° |
| 2026-04-25 15:29 | 25.82125 | 37.21114 | 34867 ft | 544 kts | 126° |
| 2026-04-25 15:29 | 25.78454 | 37.28459 | 34871 ft | 544 kts | 127° |
| 2026-04-25 15:30 | 25.74795 | 37.35807 | 34876 ft | 544 kts | 126° |
| 2026-04-25 15:30 | 25.71139 | 37.43153 | 34891 ft | 544 kts | 126° |
| 2026-04-25 15:31 | 25.68102 | 37.49249 | 34899 ft | 542 kts | 126° |
| 2026-04-25 15:31 | 25.63863 | 37.57740 | 34897 ft | 542 kts | 127° |
| 2026-04-25 15:32 | 25.60213 | 37.65022 | 34887 ft | 540 kts | 127° |
| 2026-04-25 15:32 | 25.56568 | 37.72287 | 34887 ft | 540 kts | 126° |
| 2026-04-25 15:33 | 25.51703 | 37.81965 | 34880 ft | 540 kts | 127° |
| 2026-04-25 15:33 | 25.48044 | 37.89227 | 34875 ft | 540 kts | 127° |
| 2026-04-25 15:34 | 25.44386 | 37.96487 | 34865 ft | 540 kts | 127° |
| 2026-04-25 15:34 | 25.41345 | 38.02513 | 34858 ft | 540 kts | 127° |
| 2026-04-25 15:35 | 25.35213 | 38.14625 | 34854 ft | 541 kts | 126° |
| 2026-04-25 15:36 | 25.29693 | 38.25513 | 34855 ft | 541 kts | 126° |
| 2026-04-25 15:36 | 25.26009 | 38.32760 | 34862 ft | 540 kts | 126° |
| 2026-04-25 15:37 | 25.22323 | 38.39992 | 34861 ft | 540 kts | 126° |
| 2026-04-25 15:37 | 25.18661 | 38.47162 | 34871 ft | 539 kts | 126° |
| 2026-04-25 15:38 | 25.14975 | 38.54371 | 34872 ft | 539 kts | 126° |
| 2026-04-25 15:38 | 25.11294 | 38.61570 | 34883 ft | 538 kts | 126° |
| 2026-04-25 15:39 | 25.07616 | 38.68759 | 34866 ft | 537 kts | 126° |
| 2026-04-25 15:39 | 25.03930 | 38.75928 | 34878 ft | 537 kts | 126° |
| 2026-04-25 15:40 | 25.00868 | 38.81874 | 34876 ft | 537 kts | 126° |
| 2026-04-25 15:40 | 24.96548 | 38.90240 | 34896 ft | 537 kts | 126° |
| 2026-04-25 15:41 | 24.92854 | 38.97402 | 34904 ft | 537 kts | 126° |
| 2026-04-25 15:41 | 24.89156 | 39.04551 | 34902 ft | 537 kts | 126° |
| 2026-04-25 15:42 | 24.85451 | 39.11686 | 34908 ft | 536 kts | 126° |
| 2026-04-25 15:42 | 24.81752 | 39.18812 | 34909 ft | 536 kts | 126° |
| 2026-04-25 15:43 | 24.78052 | 39.25925 | 34905 ft | 535 kts | 126° |
| 2026-04-25 15:43 | 24.74349 | 39.33031 | 34914 ft | 535 kts | 126° |
| 2026-04-25 15:44 | 24.70651 | 39.40127 | 34921 ft | 535 kts | 126° |
| 2026-04-25 15:44 | 24.66979 | 39.47164 | 34931 ft | 534 kts | 126° |
| 2026-04-25 15:45 | 24.63288 | 39.54239 | 34935 ft | 533 kts | 126° |
| 2026-04-25 15:45 | 24.60191 | 39.60161 | 34927 ft | 533 kts | 126° |
| 2026-04-25 15:46 | 24.56049 | 39.68473 | 34929 ft | 539 kts | 117° |
| 2026-04-25 15:46 | 24.54162 | 39.76487 | 34934 ft | 546 kts | 97° |
| 2026-04-25 15:47 | 24.53407 | 39.84779 | 34935 ft | 546 kts | 97° |
| 2026-04-25 15:47 | 24.52610 | 39.93064 | 34934 ft | 545 kts | 98° |
| 2026-04-25 15:48 | 24.51792 | 40.01341 | 34935 ft | 545 kts | 98° |
| 2026-04-25 15:48 | 24.50986 | 40.09609 | 34935 ft | 544 kts | 98° |
| 2026-04-25 15:49 | 24.50178 | 40.17869 | 34935 ft | 544 kts | 98° |
| 2026-04-25 15:49 | 24.49364 | 40.26122 | 34934 ft | 543 kts | 98° |
| 2026-04-25 15:50 | 24.48548 | 40.34359 | 34937 ft | 543 kts | 98° |
| 2026-04-25 15:50 | 24.47731 | 40.42605 | 34939 ft | 542 kts | 98° |
| 2026-04-25 15:51 | 24.47050 | 40.49444 | 34943 ft | 542 kts | 98° |
| 2026-04-25 15:51 | 24.46080 | 40.58987 | 34943 ft | 541 kts | 98° |
| 2026-04-25 15:52 | 24.45233 | 40.67196 | 34954 ft | 541 kts | 98° |
| 2026-04-25 15:52 | 24.44389 | 40.75406 | 34956 ft | 542 kts | 98° |
| 2026-04-25 15:53 | 24.43554 | 40.83621 | 34964 ft | 542 kts | 97° |
| 2026-04-25 15:53 | 24.42708 | 40.91844 | 34964 ft | 542 kts | 98° |
| 2026-04-25 15:54 | 24.41852 | 41.00057 | 34971 ft | 542 kts | 98° |
| 2026-04-25 15:54 | 24.41001 | 41.08268 | 34974 ft | 542 kts | 98° |
| 2026-04-25 15:55 | 24.40150 | 41.16476 | 34978 ft | 541 kts | 97° |
| 2026-04-25 15:55 | 24.39305 | 41.24626 | 34988 ft | 541 kts | 98° |
| 2026-04-25 15:56 | 24.38437 | 41.32822 | 34992 ft | 541 kts | 98° |
| 2026-04-25 15:56 | 24.37565 | 41.41013 | 35003 ft | 540 kts | 97° |
| 2026-04-25 15:57 | 24.36694 | 41.49201 | 35013 ft | 541 kts | 97° |
| 2026-04-25 15:57 | 24.35816 | 41.57382 | 35004 ft | 540 kts | 98° |
| 2026-04-25 15:58 | 24.34928 | 41.65561 | 35010 ft | 540 kts | 98° |
| 2026-04-25 15:58 | 24.34030 | 41.73757 | 35011 ft | 540 kts | 98° |
| 2026-04-25 15:59 | 24.33085 | 41.81927 | 35011 ft | 539 kts | 103° |
| 2026-04-25 15:59 | 24.31139 | 41.89829 | 35013 ft | 537 kts | 109° |
| 2026-04-25 16:00 | 24.29763 | 41.95046 | 35013 ft | 537 kts | 108° |
| 2026-04-25 16:00 | 24.28040 | 42.01640 | 35169 ft | 536 kts | 108° |
| 2026-04-25 16:00 | 24.27029 | 42.05514 | 35450 ft | 535 kts | 108° |
| 2026-04-25 16:01 | 24.26002 | 42.09431 | 35723 ft | 534 kts | 108° |
| 2026-04-25 16:01 | 24.24956 | 42.13391 | 35985 ft | 534 kts | 108° |
| 2026-04-25 16:01 | 24.23922 | 42.17283 | 36244 ft | 533 kts | 108° |
| 2026-04-25 16:01 | 24.22883 | 42.21177 | 36500 ft | 532 kts | 108° |
| 2026-04-25 16:02 | 24.21847 | 42.25067 | 36740 ft | 532 kts | 108° |
| 2026-04-25 16:02 | 24.20814 | 42.28956 | 36940 ft | 532 kts | 108° |
| 2026-04-25 16:02 | 24.18765 | 42.36686 | 36995 ft | 532 kts | 108° |
| 2026-04-25 16:03 | 24.16692 | 42.44452 | 36999 ft | 532 kts | 108° |
| 2026-04-25 16:03 | 24.14620 | 42.52226 | 37001 ft | 532 kts | 108° |
| 2026-04-25 16:04 | 24.12546 | 42.59999 | 37003 ft | 531 kts | 108° |
| 2026-04-25 16:04 | 24.10460 | 42.67759 | 37003 ft | 531 kts | 108° |
| 2026-04-25 16:05 | 24.08366 | 42.75499 | 37009 ft | 531 kts | 108° |
| 2026-04-25 16:06 | 24.05232 | 42.87129 | 37015 ft | 531 kts | 108° |
| 2026-04-25 16:06 | 24.03145 | 42.94878 | 37016 ft | 531 kts | 108° |
| 2026-04-25 16:07 | 24.01047 | 43.02636 | 37025 ft | 531 kts | 108° |
| 2026-04-25 16:07 | 23.98953 | 43.10378 | 37019 ft | 531 kts | 108° |
| 2026-04-25 16:08 | 23.96854 | 43.18128 | 37018 ft | 531 kts | 109° |
| 2026-04-25 16:08 | 23.94742 | 43.25871 | 37016 ft | 531 kts | 109° |
| 2026-04-25 16:09 | 23.92626 | 43.33609 | 37017 ft | 531 kts | 108° |
| 2026-04-25 16:09 | 23.90508 | 43.41337 | 37012 ft | 531 kts | 109° |
| 2026-04-25 16:10 | 23.88378 | 43.49066 | 37011 ft | 531 kts | 109° |
| 2026-04-25 16:10 | 23.86269 | 43.56740 | 37002 ft | 531 kts | 109° |
| 2026-04-25 16:11 | 23.84150 | 43.64465 | 36997 ft | 531 kts | 109° |
| 2026-04-25 16:11 | 23.82015 | 43.72178 | 36988 ft | 531 kts | 109° |
| 2026-04-25 16:12 | 23.79873 | 43.79903 | 36982 ft | 531 kts | 109° |
| 2026-04-25 16:12 | 23.77787 | 43.87635 | 36972 ft | 532 kts | 104° |
| 2026-04-25 16:13 | 23.76892 | 43.95645 | 36975 ft | 533 kts | 94° |
| 2026-04-25 16:13 | 23.76310 | 44.03711 | 36970 ft | 533 kts | 95° |
| 2026-04-25 16:14 | 23.75705 | 44.11771 | 36971 ft | 533 kts | 95° |
| 2026-04-25 16:14 | 23.75091 | 44.19833 | 36973 ft | 532 kts | 95° |
| 2026-04-25 16:15 | 23.74482 | 44.27871 | 36973 ft | 532 kts | 95° |
| 2026-04-25 16:15 | 23.73871 | 44.35920 | 36974 ft | 531 kts | 95° |
| 2026-04-25 16:16 | 23.73258 | 44.43957 | 36983 ft | 531 kts | 95° |
| 2026-04-25 16:16 | 23.72637 | 44.51987 | 36985 ft | 531 kts | 95° |
| 2026-04-25 16:17 | 23.72011 | 44.60010 | 36991 ft | 530 kts | 95° |
| 2026-04-25 16:17 | 23.71384 | 44.68026 | 36987 ft | 530 kts | 95° |
| 2026-04-25 16:18 | 23.70754 | 44.75980 | 36987 ft | 529 kts | 95° |
| 2026-04-25 16:18 | 23.70118 | 44.83980 | 36985 ft | 529 kts | 95° |
| 2026-04-25 16:19 | 23.69484 | 44.91971 | 36988 ft | 528 kts | 95° |
| 2026-04-25 16:19 | 23.68849 | 44.99954 | 36984 ft | 528 kts | 95° |
| 2026-04-25 16:20 | 23.67876 | 45.11894 | 36993 ft | 526 kts | 95° |
| 2026-04-25 16:21 | 23.66892 | 45.23828 | 36999 ft | 525 kts | 95° |
| 2026-04-25 16:21 | 23.66350 | 45.30417 | 36992 ft | 525 kts | 96° |
| 2026-04-25 16:22 | 23.65694 | 45.38346 | 36991 ft | 525 kts | 96° |
| 2026-04-25 16:22 | 23.65038 | 45.46269 | 36988 ft | 524 kts | 96° |
| 2026-04-25 16:23 | 23.64372 | 45.54185 | 36986 ft | 524 kts | 96° |
| 2026-04-25 16:23 | 23.63705 | 45.62099 | 36977 ft | 524 kts | 96° |
| 2026-04-25 16:24 | 23.63032 | 45.70014 | 36980 ft | 524 kts | 96° |
| 2026-04-25 16:24 | 23.62354 | 45.77931 | 36975 ft | 524 kts | 96° |
| 2026-04-25 16:25 | 23.61667 | 45.85851 | 36983 ft | 525 kts | 96° |
| 2026-04-25 16:25 | 23.60963 | 45.93768 | 36986 ft | 524 kts | 96° |
| 2026-04-25 16:26 | 23.60264 | 46.01682 | 36987 ft | 524 kts | 96° |
| 2026-04-25 16:26 | 23.59576 | 46.09595 | 36990 ft | 524 kts | 96° |
| 2026-04-25 16:27 | 23.58884 | 46.17507 | 37002 ft | 524 kts | 96° |
| 2026-04-25 16:27 | 23.58186 | 46.25407 | 36999 ft | 524 kts | 96° |
| 2026-04-25 16:28 | 23.57484 | 46.33312 | 37003 ft | 524 kts | 96° |
| 2026-04-25 16:28 | 23.56780 | 46.41174 | 37003 ft | 524 kts | 96° |
| 2026-04-25 16:29 | 23.56060 | 46.49075 | 36999 ft | 523 kts | 96° |
| 2026-04-25 16:29 | 23.55347 | 46.56970 | 36996 ft | 523 kts | 96° |
| 2026-04-25 16:30 | 23.54644 | 46.64865 | 37002 ft | 523 kts | 96° |
| 2026-04-25 16:30 | 23.53933 | 46.72741 | 37000 ft | 522 kts | 96° |
| 2026-04-25 16:31 | 23.53206 | 46.80622 | 36993 ft | 522 kts | 96° |
| 2026-04-25 16:31 | 23.52473 | 46.88483 | 36997 ft | 521 kts | 96° |
| 2026-04-25 16:32 | 23.51743 | 46.96338 | 36989 ft | 521 kts | 96° |
| 2026-04-25 16:32 | 23.51004 | 47.04188 | 36988 ft | 521 kts | 96° |
| 2026-04-25 16:33 | 23.50258 | 47.12030 | 36988 ft | 520 kts | 96° |
| 2026-04-25 16:33 | 23.49513 | 47.19863 | 36986 ft | 520 kts | 96° |
| 2026-04-25 16:34 | 23.48763 | 47.27690 | 36982 ft | 519 kts | 96° |
| 2026-04-25 16:34 | 23.48018 | 47.35518 | 36983 ft | 519 kts | 96° |
| 2026-04-25 16:35 | 23.47265 | 47.43336 | 36987 ft | 519 kts | 96° |
| 2026-04-25 16:35 | 23.46503 | 47.51115 | 36988 ft | 519 kts | 96° |
| 2026-04-25 16:36 | 23.45742 | 47.58935 | 36986 ft | 519 kts | 96° |
| 2026-04-25 16:36 | 23.44985 | 47.66748 | 36983 ft | 519 kts | 96° |
| 2026-04-25 16:37 | 23.44220 | 47.74562 | 36979 ft | 518 kts | 96° |
| 2026-04-25 16:37 | 23.43448 | 47.82356 | 36978 ft | 518 kts | 96° |
| 2026-04-25 16:38 | 23.42657 | 47.90156 | 36974 ft | 518 kts | 96° |
| 2026-04-25 16:38 | 23.41872 | 47.97949 | 36967 ft | 518 kts | 96° |
| 2026-04-25 16:39 | 23.41089 | 48.05742 | 36972 ft | 518 kts | 96° |
| 2026-04-25 16:39 | 23.40304 | 48.13530 | 36963 ft | 517 kts | 97° |
| 2026-04-25 16:40 | 23.39519 | 48.21262 | 36959 ft | 517 kts | 97° |
| 2026-04-25 16:40 | 23.38724 | 48.29044 | 36960 ft | 517 kts | 97° |
| 2026-04-25 16:41 | 23.37974 | 48.36829 | 36959 ft | 517 kts | 94° |
| 2026-04-25 16:41 | 23.37530 | 48.48564 | 36962 ft | 517 kts | 91° |
| 2026-04-25 16:42 | 23.37339 | 48.56396 | 36964 ft | 518 kts | 92° |
| 2026-04-25 16:42 | 23.37037 | 48.64227 | 36966 ft | 518 kts | 92° |
| 2026-04-25 16:43 | 23.36683 | 48.72058 | 36966 ft | 518 kts | 93° |
| 2026-04-25 16:43 | 23.36329 | 48.79896 | 36965 ft | 518 kts | 92° |
| 2026-04-25 16:44 | 23.35996 | 48.87716 | 36968 ft | 518 kts | 92° |
| 2026-04-25 16:44 | 23.35663 | 48.95552 | 36965 ft | 518 kts | 92° |
| 2026-04-25 16:45 | 23.35309 | 49.03367 | 36964 ft | 517 kts | 93° |
| 2026-04-25 16:45 | 23.34527 | 49.11084 | 36960 ft | 516 kts | 99° |
| 2026-04-25 16:46 | 23.33430 | 49.18806 | 36964 ft | 516 kts | 99° |
| 2026-04-25 16:46 | 23.32687 | 49.23974 | 36963 ft | 516 kts | 99° |
| 2026-04-25 16:47 | 23.31201 | 49.34237 | 36960 ft | 516 kts | 99° |
| 2026-04-25 16:47 | 23.30080 | 49.41948 | 36959 ft | 516 kts | 99° |
| 2026-04-25 16:48 | 23.28960 | 49.49658 | 36962 ft | 516 kts | 99° |
| 2026-04-25 16:48 | 23.27844 | 49.57368 | 36957 ft | 516 kts | 99° |
| 2026-04-25 16:49 | 23.26720 | 49.65067 | 36961 ft | 516 kts | 99° |
| 2026-04-25 16:49 | 23.25579 | 49.72781 | 36965 ft | 516 kts | 100° |
| 2026-04-25 16:50 | 23.24442 | 49.80479 | 36958 ft | 516 kts | 100° |
| 2026-04-25 16:50 | 23.23309 | 49.88187 | 36959 ft | 516 kts | 99° |
| 2026-04-25 16:51 | 23.22170 | 49.95893 | 36958 ft | 516 kts | 99° |
| 2026-04-25 16:51 | 23.21412 | 50.00992 | 36958 ft | 516 kts | 99° |
| 2026-04-25 16:52 | 23.19877 | 50.11248 | 36962 ft | 516 kts | 99° |
| 2026-04-25 16:52 | 23.18718 | 50.18948 | 36963 ft | 516 kts | 100° |
| 2026-04-25 16:53 | 23.16983 | 50.30501 | 36972 ft | 516 kts | 99° |
| 2026-04-25 16:54 | 23.15816 | 50.38191 | 36972 ft | 516 kts | 100° |
| 2026-04-25 16:54 | 23.14647 | 50.45876 | 36971 ft | 515 kts | 100° |
| 2026-04-25 16:55 | 23.13480 | 50.53565 | 36969 ft | 515 kts | 100° |
| 2026-04-25 16:55 | 23.12313 | 50.61243 | 36969 ft | 515 kts | 100° |
| 2026-04-25 16:56 | 23.11146 | 50.68917 | 36971 ft | 515 kts | 100° |
| 2026-04-25 16:56 | 23.09981 | 50.76587 | 36968 ft | 514 kts | 100° |
| 2026-04-25 16:57 | 23.08808 | 50.84250 | 36973 ft | 514 kts | 100° |
| 2026-04-25 16:57 | 23.07625 | 50.91905 | 36976 ft | 514 kts | 100° |
| 2026-04-25 16:58 | 23.06437 | 50.99548 | 36982 ft | 514 kts | 100° |
| 2026-04-25 16:58 | 23.05240 | 51.07197 | 36977 ft | 513 kts | 100° |
| 2026-04-25 16:59 | 23.04046 | 51.14823 | 36977 ft | 512 kts | 100° |
| 2026-04-25 16:59 | 23.02847 | 51.22444 | 36979 ft | 512 kts | 100° |
| 2026-04-25 17:00 | 23.01651 | 51.30061 | 36981 ft | 511 kts | 100° |
| 2026-04-25 17:00 | 23.00456 | 51.37659 | 36977 ft | 511 kts | 100° |
| 2026-04-25 17:01 | 22.99245 | 51.45264 | 36979 ft | 511 kts | 100° |
| 2026-04-25 17:01 | 22.98047 | 51.52814 | 36975 ft | 510 kts | 100° |
| 2026-04-25 17:02 | 22.96841 | 51.60401 | 36975 ft | 510 kts | 100° |
| 2026-04-25 17:02 | 22.95632 | 51.67975 | 36971 ft | 510 kts | 100° |
| 2026-04-25 17:03 | 22.94416 | 51.75550 | 36961 ft | 509 kts | 100° |
| 2026-04-25 17:03 | 22.93201 | 51.83118 | 36969 ft | 509 kts | 100° |
| 2026-04-25 17:04 | 22.91977 | 51.90681 | 36965 ft | 509 kts | 100° |
| 2026-04-25 17:04 | 22.90737 | 51.98235 | 36968 ft | 508 kts | 100° |
| 2026-04-25 17:05 | 22.89501 | 52.05783 | 36964 ft | 508 kts | 100° |
| 2026-04-25 17:05 | 22.87662 | 52.17100 | 36956 ft | 508 kts | 100° |
| 2026-04-25 17:06 | 22.86436 | 52.24641 | 36922 ft | 508 kts | 100° |
| 2026-04-25 17:06 | 22.85197 | 52.32192 | 36952 ft | 510 kts | 98° |
| 2026-04-25 17:07 | 22.83946 | 52.39770 | 36953 ft | 510 kts | 98° |
| 2026-04-25 17:07 | 22.82699 | 52.47339 | 36968 ft | 510 kts | 97° |
| 2026-04-25 17:08 | 22.82287 | 52.54918 | 36952 ft | 507 kts | 89° |
| 2026-04-25 17:08 | 22.82112 | 52.62559 | 36949 ft | 507 kts | 89° |
| 2026-04-25 17:09 | 22.81928 | 52.70188 | 36950 ft | 507 kts | 89° |
| 2026-04-25 17:09 | 22.81718 | 52.77827 | 36961 ft | 507 kts | 89° |
| 2026-04-25 17:10 | 22.81539 | 52.84177 | 36947 ft | 507 kts | 89° |
| 2026-04-25 17:10 | 22.81329 | 52.91820 | 36951 ft | 507 kts | 89° |
| 2026-04-25 17:11 | 22.81121 | 52.99465 | 36944 ft | 507 kts | 89° |
| 2026-04-25 17:11 | 22.80909 | 53.07110 | 36942 ft | 507 kts | 89° |
| 2026-04-25 17:12 | 22.80690 | 53.14756 | 36942 ft | 508 kts | 89° |
| 2026-04-25 17:12 | 22.80465 | 53.22410 | 36945 ft | 507 kts | 89° |
| 2026-04-25 17:13 | 22.80272 | 53.28758 | 36944 ft | 507 kts | 89° |
| 2026-04-25 17:13 | 22.80004 | 53.37689 | 36942 ft | 507 kts | 89° |
| 2026-04-25 17:14 | 22.79773 | 53.45330 | 36943 ft | 507 kts | 89° |
| 2026-04-25 17:14 | 22.79537 | 53.52976 | 36947 ft | 507 kts | 89° |
| 2026-04-25 17:15 | 22.79296 | 53.60603 | 36942 ft | 507 kts | 89° |
| 2026-04-25 17:15 | 22.79052 | 53.68243 | 36940 ft | 507 kts | 89° |
| 2026-04-25 17:16 | 22.78801 | 53.75814 | 36940 ft | 507 kts | 89° |
| 2026-04-25 17:16 | 22.78549 | 53.83450 | 36941 ft | 506 kts | 89° |
| 2026-04-25 17:17 | 22.78297 | 53.91074 | 36937 ft | 506 kts | 89° |
| 2026-04-25 17:17 | 22.78152 | 53.98691 | 36932 ft | 503 kts | 82° |
| 2026-04-25 17:18 | 22.79343 | 54.06092 | 36932 ft | 497 kts | 73° |
| 2026-04-25 17:18 | 22.80824 | 54.13407 | 36940 ft | 497 kts | 73° |
| 2026-04-25 17:19 | 22.82303 | 54.20717 | 36930 ft | 497 kts | 73° |
| 2026-04-25 17:19 | 22.83777 | 54.27981 | 36932 ft | 496 kts | 73° |
| 2026-04-25 17:20 | 22.85261 | 54.35296 | 36934 ft | 496 kts | 73° |
| 2026-04-25 17:20 | 22.86738 | 54.42593 | 36935 ft | 496 kts | 73° |
| 2026-04-25 17:21 | 22.88204 | 54.49907 | 36937 ft | 496 kts | 73° |
| 2026-04-25 17:21 | 22.89667 | 54.57210 | 36943 ft | 495 kts | 73° |
| 2026-04-25 17:22 | 22.90883 | 54.63272 | 36937 ft | 495 kts | 73° |
| 2026-04-25 17:22 | 22.92587 | 54.71800 | 36931 ft | 495 kts | 73° |
| 2026-04-25 17:23 | 22.94036 | 54.79094 | 36927 ft | 494 kts | 73° |
| 2026-04-25 17:23 | 22.95483 | 54.86381 | 36935 ft | 494 kts | 73° |
| 2026-04-25 17:24 | 22.96921 | 54.93661 | 36929 ft | 493 kts | 73° |
| 2026-04-25 17:24 | 22.98358 | 55.00933 | 36932 ft | 492 kts | 73° |
| 2026-04-25 17:25 | 22.99788 | 55.08156 | 36935 ft | 492 kts | 73° |
| 2026-04-25 17:25 | 23.01373 | 55.15353 | 36943 ft | 485 kts | 64° |
| 2026-04-25 17:26 | 23.02799 | 55.18617 | 36932 ft | 475 kts | 52° |
| 2026-04-25 17:26 | 23.04731 | 55.21477 | 36947 ft | 465 kts | 41° |
| 2026-04-25 17:26 | 23.07066 | 55.23850 | 36936 ft | 455 kts | 30° |
| 2026-04-25 17:26 | 23.09699 | 55.25689 | 36938 ft | 446 kts | 20° |
| 2026-04-25 17:27 | 23.15450 | 55.27845 | 36934 ft | 435 kts | 9° |
| 2026-04-25 17:27 | 23.19361 | 55.28989 | 36933 ft | 436 kts | 9° |
| 2026-04-25 17:28 | 23.27164 | 55.31274 | 36938 ft | 437 kts | 9° |
| 2026-04-25 17:28 | 23.33019 | 55.33009 | 36772 ft | 432 kts | 9° |
| 2026-04-25 17:29 | 23.35895 | 55.33866 | 36509 ft | 424 kts | 9° |
| 2026-04-25 17:29 | 23.38712 | 55.34709 | 36337 ft | 416 kts | 9° |
| 2026-04-25 17:29 | 23.41473 | 55.35535 | 35966 ft | 411 kts | 9° |
| 2026-04-25 17:29 | 23.44262 | 55.36358 | 35180 ft | 419 kts | 10° |
| 2026-04-25 17:30 | 23.46138 | 55.36907 | 34719 ft | 422 kts | 10° |
| 2026-04-25 17:30 | 23.49956 | 55.38024 | 33937 ft | 425 kts | 11° |
| 2026-04-25 17:30 | 23.52809 | 55.38867 | 33360 ft | 426 kts | 11° |
| 2026-04-25 17:30 | 23.55679 | 55.39716 | 32557 ft | 431 kts | 11° |
| 2026-04-25 17:31 | 23.58606 | 55.40581 | 31663 ft | 439 kts | 12° |
| 2026-04-25 17:31 | 23.61534 | 55.41446 | 30851 ft | 445 kts | 12° |
| 2026-04-25 17:31 | 23.64578 | 55.42346 | 30089 ft | 449 kts | 12° |
| 2026-04-25 17:31 | 23.67551 | 55.43228 | 29417 ft | 448 kts | 12° |
| 2026-04-25 17:32 | 23.70605 | 55.44137 | 28518 ft | 451 kts | 12° |
| 2026-04-25 17:32 | 23.73632 | 55.45037 | 27793 ft | 452 kts | 12° |
| 2026-04-25 17:32 | 23.76656 | 55.45936 | 27172 ft | 449 kts | 12° |
| 2026-04-25 17:32 | 23.79619 | 55.46814 | 26550 ft | 446 kts | 12° |
| 2026-04-25 17:33 | 23.82633 | 55.47708 | 25711 ft | 450 kts | 13° |
| 2026-04-25 17:33 | 23.85652 | 55.48605 | 25186 ft | 450 kts | 13° |
| 2026-04-25 17:33 | 23.88674 | 55.49503 | 24988 ft | 451 kts | 13° |
| 2026-04-25 17:33 | 23.91696 | 55.50400 | 24540 ft | 448 kts | 13° |
| 2026-04-25 17:34 | 23.94685 | 55.51289 | 24032 ft | 443 kts | 13° |
| 2026-04-25 17:34 | 23.97628 | 55.52171 | 23691 ft | 434 kts | 14° |
| 2026-04-25 17:34 | 24.00413 | 55.53381 | 23375 ft | 428 kts | 25° |
| 2026-04-25 17:34 | 24.02908 | 55.55114 | 23079 ft | 423 kts | 37° |
| 2026-04-25 17:35 | 24.05101 | 55.57222 | 22797 ft | 419 kts | 41° |
| 2026-04-25 17:35 | 24.07248 | 55.59357 | 22508 ft | 416 kts | 41° |
| 2026-04-25 17:35 | 24.09388 | 55.61478 | 22314 ft | 414 kts | 40° |
| 2026-04-25 17:35 | 24.11514 | 55.63579 | 22042 ft | 412 kts | 40° |
| 2026-04-25 17:36 | 24.13634 | 55.65673 | 21751 ft | 410 kts | 41° |
| 2026-04-25 17:36 | 24.15744 | 55.67759 | 21474 ft | 408 kts | 41° |
| 2026-04-25 17:36 | 24.17840 | 55.69839 | 21192 ft | 406 kts | 41° |
| 2026-04-25 17:36 | 24.19924 | 55.71911 | 20915 ft | 404 kts | 41° |
| 2026-04-25 17:37 | 24.22000 | 55.73973 | 20637 ft | 402 kts | 41° |
| 2026-04-25 17:37 | 24.24068 | 55.76025 | 20363 ft | 400 kts | 41° |
| 2026-04-25 17:37 | 24.26130 | 55.78065 | 20082 ft | 398 kts | 41° |
| 2026-04-25 17:37 | 24.28181 | 55.80098 | 19804 ft | 397 kts | 41° |
| 2026-04-25 17:38 | 24.30222 | 55.82126 | 19529 ft | 395 kts | 41° |
| 2026-04-25 17:38 | 24.30907 | 55.82809 | 19443 ft | 395 kts | 41° |
| 2026-04-25 17:38 | 24.34271 | 55.86169 | 18986 ft | 392 kts | 41° |
| 2026-04-25 17:38 | 24.36282 | 55.88180 | 18719 ft | 390 kts | 41° |
| 2026-04-25 17:39 | 24.38286 | 55.90182 | 18444 ft | 389 kts | 41° |
| 2026-04-25 17:39 | 24.40284 | 55.92172 | 18165 ft | 387 kts | 41° |
| 2026-04-25 17:39 | 24.42249 | 55.94126 | 17883 ft | 386 kts | 41° |
| 2026-04-25 17:39 | 24.44234 | 55.96098 | 17621 ft | 384 kts | 41° |
| 2026-04-25 17:40 | 24.46208 | 55.98065 | 17356 ft | 382 kts | 41° |
| 2026-04-25 17:40 | 24.48171 | 56.00027 | 17100 ft | 381 kts | 42° |
| 2026-04-25 17:40 | 24.50125 | 56.01981 | 16826 ft | 379 kts | 42° |
| 2026-04-25 17:40 | 24.52074 | 56.03931 | 16566 ft | 377 kts | 42° |
| 2026-04-25 17:41 | 24.54008 | 56.05867 | 16309 ft | 375 kts | 42° |
| 2026-04-25 17:41 | 24.55932 | 56.07796 | 16046 ft | 374 kts | 42° |
| 2026-04-25 17:41 | 24.57848 | 56.09713 | 15781 ft | 371 kts | 40° |
| 2026-04-25 17:41 | 24.59948 | 56.11340 | 15518 ft | 369 kts | 28° |
| 2026-04-25 17:42 | 24.62295 | 56.12441 | 15260 ft | 366 kts | 15° |
| 2026-04-25 17:42 | 24.64775 | 56.13017 | 15008 ft | 364 kts | 8° |
| 2026-04-25 17:42 | 24.67268 | 56.13469 | 14749 ft | 362 kts | 8° |
| 2026-04-25 17:42 | 24.69718 | 56.13919 | 14495 ft | 361 kts | 8° |
| 2026-04-25 17:43 | 24.72191 | 56.14377 | 14244 ft | 360 kts | 9° |
| 2026-04-25 17:43 | 24.74659 | 56.14831 | 13998 ft | 358 kts | 8° |
| 2026-04-25 17:43 | 24.77120 | 56.15222 | 13735 ft | 356 kts | 2° |
| 2026-04-25 17:43 | 24.79589 | 56.15106 | 13464 ft | 354 kts | 349° |
| 2026-04-25 17:44 | 24.81953 | 56.14409 | 13218 ft | 351 kts | 337° |
| 2026-04-25 17:44 | 24.84180 | 56.13323 | 12972 ft | 350 kts | 334° |
| 2026-04-25 17:44 | 24.86387 | 56.12233 | 12741 ft | 343 kts | 334° |
| 2026-04-25 17:44 | 24.88534 | 56.11181 | 12570 ft | 332 kts | 334° |
| 2026-04-25 17:45 | 24.90611 | 56.10166 | 12444 ft | 321 kts | 334° |
| 2026-04-25 17:45 | 24.91268 | 56.09844 | 12396 ft | 318 kts | 334° |
| 2026-04-25 17:45 | 24.94432 | 56.07940 | 12097 ft | 304 kts | 316° |
| 2026-04-25 17:45 | 24.95737 | 56.06125 | 11537 ft | 302 kts | 295° |
| 2026-04-25 17:46 | 24.96503 | 56.04002 | 10951 ft | 297 kts | 289° |
| 2026-04-25 17:46 | 24.97219 | 56.01869 | 10371 ft | 295 kts | 289° |
| 2026-04-25 17:46 | 24.97919 | 55.99795 | 9866 ft | 290 kts | 289° |
| 2026-04-25 17:46 | 24.98629 | 55.97700 | 9310 ft | 286 kts | 289° |
| 2026-04-25 17:47 | 24.99322 | 55.95666 | 8773 ft | 283 kts | 289° |
| 2026-04-25 17:47 | 25.00009 | 55.93651 | 8237 ft | 279 kts | 289° |
| 2026-04-25 17:47 | 25.00687 | 55.91663 | 7704 ft | 275 kts | 290° |
| 2026-04-25 17:47 | 25.01355 | 55.89705 | 7206 ft | 271 kts | 290° |
| 2026-04-25 17:48 | 25.02655 | 55.85878 | 6276 ft | 262 kts | 291° |
| 2026-04-25 17:48 | 25.03281 | 55.84037 | 5797 ft | 258 kts | 291° |
| 2026-04-25 17:48 | 25.03899 | 55.82205 | 5383 ft | 251 kts | 291° |
| 2026-04-25 17:49 | 25.04497 | 55.80434 | 5027 ft | 243 kts | 291° |
| 2026-04-25 17:49 | 25.05090 | 55.78683 | 4674 ft | 244 kts | 291° |
| 2026-04-25 17:49 | 25.05684 | 55.76927 | 4350 ft | 244 kts | 291° |
| 2026-04-25 17:49 | 25.06273 | 55.75180 | 4122 ft | 239 kts | 292° |
| 2026-04-25 17:50 | 25.06845 | 55.73486 | 4040 ft | 234 kts | 292° |
| 2026-04-25 17:50 | 25.07413 | 55.71807 | 4041 ft | 233 kts | 292° |
| 2026-04-25 17:50 | 25.07976 | 55.70138 | 4037 ft | 228 kts | 292° |
| 2026-04-25 17:50 | 25.08510 | 55.68550 | 4040 ft | 216 kts | 292° |
| 2026-04-25 17:51 | 25.09029 | 55.67013 | 4044 ft | 213 kts | 292° |
| 2026-04-25 17:51 | 25.09545 | 55.65486 | 4045 ft | 214 kts | 290° |
| 2026-04-25 17:51 | 25.10085 | 55.63961 | 4041 ft | 212 kts | 297° |
| 2026-04-25 17:51 | 25.10777 | 55.62544 | 4039 ft | 212 kts | 302° |
| 2026-04-25 17:52 | 25.11550 | 55.61131 | 4044 ft | 213 kts | 302° |
| 2026-04-25 17:52 | 25.11802 | 55.60678 | 4040 ft | 212 kts | 302° |
| 2026-04-25 17:52 | 25.13080 | 55.58389 | 3760 ft | 205 kts | 302° |
| 2026-04-25 17:52 | 25.13815 | 55.57067 | 3509 ft | 204 kts | 302° |
| 2026-04-25 17:53 | 25.14556 | 55.55737 | 3265 ft | 203 kts | 303° |
| 2026-04-25 17:53 | 25.15299 | 55.54404 | 3013 ft | 203 kts | 302° |
| 2026-04-25 17:53 | 25.16032 | 55.53088 | 2766 ft | 198 kts | 303° |
| 2026-04-25 17:53 | 25.16755 | 55.51788 | 2515 ft | 198 kts | 302° |
| 2026-04-25 17:54 | 25.17465 | 55.50511 | 2237 ft | 192 kts | 303° |
| 2026-04-25 17:54 | 25.18154 | 55.49273 | 2008 ft | 187 kts | 302° |
| 2026-04-25 17:54 | 25.18819 | 55.48078 | 1765 ft | 177 kts | 302° |
| 2026-04-25 17:54 | 25.19428 | 55.46981 | 1549 ft | 159 kts | 302° |
| 2026-04-25 17:55 | 25.19987 | 55.45977 | 1350 ft | 150 kts | 302° |
| 2026-04-25 17:55 | 25.20520 | 55.45019 | 1173 ft | 147 kts | 302° |
| 2026-04-25 17:55 | 25.21052 | 55.44062 | 998 ft | 146 kts | 302° |
| 2026-04-25 17:55 | 25.21582 | 55.43100 | 798 ft | 147 kts | 301° |
| 2026-04-25 17:56 | 25.22114 | 55.42133 | 621 ft | 145 kts | 301° |
| 2026-04-25 17:56 | 25.22643 | 55.41178 | 439 ft | 146 kts | 302° |
| 2026-04-25 17:56 | 25.23178 | 55.40225 | 236 ft | 145 kts | 302° |
| 2026-04-25 17:56 | 25.23703 | 55.39281 | 49 ft | 144 kts | 302° |
| 2026-04-25 17:57 | 25.24179 | 55.38425 | 31 ft | 110 kts | 301° |
| 2026-04-25 17:57 | 25.24491 | 55.37867 | 30 ft | 63 kts | 302° |
| 2026-04-25 17:57 | 25.24704 | 55.37481 | 28 ft | 50 kts | 300° |
| 2026-04-25 17:57 | 25.24748 | 55.37392 | 28 ft | 35 kts | 294° |
| 2026-04-25 17:58 | 25.24785 | 55.37125 | 26 ft | 11 kts | 272° |
| 2026-04-25 17:58 | 25.24789 | 55.37025 | 24 ft | 13 kts | 274° |
| 2026-04-25 17:58 | 25.24817 | 55.36915 | 23 ft | 17 kts | 297° |
| 2026-04-25 17:58 | 25.24860 | 55.36811 | 23 ft | 15 kts | 284° |
| 2026-04-25 17:59 | 25.24874 | 55.36729 | 22 ft | 17 kts | 282° |
| 2026-04-25 17:59 | 25.24934 | 55.36590 | 22 ft | 16 kts | 302° |
| 2026-04-25 17:59 | 25.24987 | 55.36496 | 22 ft | 16 kts | 302° |
| 2026-04-25 17:59 | 25.25029 | 55.36423 | 22 ft | 16 kts | 301° |
| 2026-04-25 18:00 | 25.25088 | 55.36320 | 24 ft | 17 kts | 303° |
| 2026-04-25 18:00 | 25.25160 | 55.36188 | 23 ft | 15 kts | 301° |
| 2026-04-25 18:00 | 25.25198 | 55.36121 | 22 ft | 16 kts | 302° |
| 2026-04-25 18:00 | 25.25258 | 55.36015 | 24 ft | 17 kts | 301° |
| 2026-04-25 18:01 | 25.25324 | 55.35899 | 21 ft | 19 kts | 302° |
| 2026-04-25 18:01 | 25.25395 | 55.35773 | 21 ft | 20 kts | 302° |
| 2026-04-25 18:01 | 25.25471 | 55.35638 | 21 ft | 21 kts | 301° |
| 2026-04-25 18:01 | 25.25551 | 55.35495 | 23 ft | 23 kts | 302° |
| 2026-04-25 18:02 | 25.25636 | 55.35344 | 23 ft | 24 kts | 302° |
| 2026-04-25 18:02 | 25.25726 | 55.35185 | 22 ft | 25 kts | 302° |
| 2026-04-25 18:02 | 25.25808 | 55.35030 | 21 ft | 22 kts | 301° |
| 2026-04-25 18:02 | 25.25892 | 55.34880 | 21 ft | 24 kts | 302° |
| 2026-04-25 18:03 | 25.25976 | 55.34730 | 23 ft | 18 kts | 302° |
| 2026-04-25 18:03 | 25.26040 | 55.34618 | 21 ft | 18 kts | 302° |
| 2026-04-25 18:03 | 25.26108 | 55.34499 | 23 ft | 19 kts | 303° |
| 2026-04-25 18:03 | 25.26169 | 55.34388 | 22 ft | 17 kts | 301° |
| 2026-04-25 18:04 | 25.26227 | 55.34283 | 21 ft | 12 kts | 302° |
| 2026-04-25 18:04 | 25.26270 | 55.34207 | 22 ft | 10 kts | 302° |
| 2026-04-25 18:04 | 25.26287 | 55.34154 | 21 ft | 6 kts | 269° |
| 2026-04-25 18:04 | 25.26267 | 55.34119 | 22 ft | 6 kts | 223° |
| 2026-04-25 18:05 | 25.26229 | 55.34092 | 21 ft | 7 kts | 210° |
| 2026-04-25 18:05 | 25.26187 | 55.34069 | 21 ft | 6 kts | 192° |
| 2026-04-25 18:05 | 25.26147 | 55.34081 | 21 ft | 6 kts | 154° |
| 2026-04-25 18:05 | 25.26114 | 55.34100 | 21 ft | 4 kts | 153° |
| 2026-04-25 18:06 | 25.26100 | 55.34108 | 21 ft | 2 kts | 153° |
| 2026-04-25 18:06 | 25.26099 | 55.34108 | 21 ft | 0 kts | 153° |